Terminal Aerodrome Forecast
Issued by NWS

Home | Current Version | Previous Version | Text Only | Print | Product List | Glossary Off
Versions: 1 2 3 4 5 6 7 8 9 10 11 12 13 14

477
FTUS43 KGRB 250520
TAFMTW
TAF
KMTW 250520Z 2506/2606 13006KT P6SM BKN150 WS008/17040KT
     FM251200 14009KT P6SM BKN150
     FM251500 15012G18KT P6SM BKN150
     FM252200 11008KT P6SM SCT035 BKN100
     FM260400 11008KT 6SM -SHRA BR OVC035=

USA.gov is the U.S. government's official web portal to all federal, state and local government web resources and services.